createdAt,value
2017-08-07T00:02:21.464Z,14.80
2017-08-07T00:04:49.845Z,14.90
2017-08-07T00:07:18.535Z,14.80
2017-08-07T00:09:46.852Z,14.80
2017-08-07T00:12:15.095Z,14.70
2017-08-07T00:14:43.389Z,14.70
2017-08-07T00:17:11.683Z,14.60
2017-08-07T00:19:40.437Z,14.60
2017-08-07T00:22:08.724Z,14.60
2017-08-07T00:24:37.074Z,14.50
2017-08-07T00:27:05.752Z,14.60
2017-08-07T00:29:34.212Z,14.60
2017-08-07T00:32:02.498Z,14.60
2017-08-07T00:34:30.845Z,14.60
2017-08-07T00:36:59.130Z,14.60
2017-08-07T00:39:33.901Z,14.50
2017-08-07T00:42:02.248Z,14.50
2017-08-07T00:44:31.411Z,14.50
2017-08-07T00:47:01.073Z,14.40
2017-08-07T00:49:29.328Z,14.40
2017-08-07T00:51:57.619Z,14.40
2017-08-07T00:54:26.220Z,14.40
2017-08-07T00:56:54.558Z,14.40
2017-08-07T00:59:22.792Z,14.40
2017-08-07T01:01:51.189Z,14.40
2017-08-07T01:04:19.446Z,14.40
2017-08-07T01:06:47.692Z,14.30
2017-08-07T01:09:15.955Z,14.30
2017-08-07T01:11:44.649Z,14.30
2017-08-07T01:14:12.888Z,14.30
2017-08-07T01:16:41.172Z,14.30
2017-08-07T01:19:09.411Z,14.30
2017-08-07T01:21:37.675Z,14.30
2017-08-07T01:24:06.097Z,14.30
2017-08-07T01:26:34.468Z,14.30
2017-08-07T01:29:03.010Z,14.30
2017-08-07T01:31:31.760Z,14.20
2017-08-07T01:34:00.351Z,14.20
2017-08-07T01:36:28.647Z,14.20
2017-08-07T01:38:56.960Z,14.20
2017-08-07T01:41:25.580Z,14.20
2017-08-07T01:43:53.840Z,14.20
2017-08-07T01:46:22.369Z,14.20
2017-08-07T01:48:50.639Z,14.20
2017-08-07T01:51:19.001Z,14.10
2017-08-07T01:53:47.300Z,14.10
2017-08-07T01:56:15.628Z,14.20
2017-08-07T01:58:44.219Z,14.20
2017-08-07T02:01:12.448Z,14.20
2017-08-07T02:03:40.703Z,14.10
2017-08-07T02:06:09.001Z,14.10
2017-08-07T02:08:37.300Z,14.10
2017-08-07T02:11:05.576Z,14.20
2017-08-07T02:13:33.840Z,14.10
2017-08-07T02:16:02.297Z,14.10
2017-08-07T02:18:30.632Z,14.00
2017-08-07T02:21:03.105Z,14.00
2017-08-07T02:23:31.771Z,13.90
2017-08-07T02:26:01.043Z,13.90
2017-08-07T02:28:29.681Z,13.90
2017-08-07T02:30:57.936Z,13.90
2017-08-07T02:33:31.147Z,13.80
2017-08-07T02:36:00.068Z,13.90
2017-08-07T02:38:28.404Z,13.80
2017-08-07T02:40:56.755Z,13.80
2017-08-07T02:43:25.875Z,13.70
2017-08-07T02:45:54.157Z,13.70
2017-08-07T02:48:22.496Z,13.70
2017-08-07T02:50:50.751Z,13.70
2017-08-07T02:53:19.099Z,13.70
2017-08-07T02:55:47.383Z,13.70
2017-08-07T02:58:15.624Z,13.70
2017-08-07T03:00:44.283Z,13.60
2017-08-07T03:03:12.536Z,13.60
2017-08-07T03:05:41.180Z,13.60
2017-08-07T03:08:09.856Z,13.60
2017-08-07T03:10:38.102Z,13.60
2017-08-07T03:13:06.495Z,13.70
2017-08-07T03:15:37.714Z,13.70
2017-08-07T03:18:23.546Z,13.70
2017-08-07T03:20:52.032Z,13.70
2017-08-07T03:23:26.356Z,13.60
2017-08-07T03:25:54.723Z,13.50
2017-08-07T03:28:23.001Z,13.50
2017-08-07T03:30:51.260Z,13.50
2017-08-07T03:33:19.671Z,13.50
2017-08-07T03:35:48.164Z,13.50
2017-08-07T03:38:16.812Z,13.40
2017-08-07T03:40:45.072Z,13.50
2017-08-07T03:43:13.491Z,13.40
2017-08-07T03:45:41.942Z,13.40
2017-08-07T03:48:10.269Z,13.40
2017-08-07T03:50:38.536Z,13.30
2017-08-07T03:53:06.831Z,13.30
2017-08-07T03:55:36.642Z,13.30
2017-08-07T03:58:05.385Z,13.20
2017-08-07T04:00:33.780Z,13.20
2017-08-07T04:03:02.524Z,13.20
2017-08-07T04:05:30.808Z,13.20
2017-08-07T04:07:59.585Z,13.20
2017-08-07T04:10:27.824Z,13.30
2017-08-07T04:12:56.170Z,13.30
2017-08-07T04:15:24.463Z,13.40
2017-08-07T04:17:53.089Z,13.50
2017-08-07T04:20:22.163Z,13.60
2017-08-07T04:22:50.460Z,13.50
2017-08-07T04:25:19.138Z,13.70
2017-08-07T04:27:47.769Z,13.70
2017-08-07T04:30:16.113Z,13.70
2017-08-07T04:32:44.380Z,13.80
2017-08-07T04:35:12.621Z,13.90
2017-08-07T04:37:40.947Z,13.90
2017-08-07T04:40:09.588Z,13.90
2017-08-07T04:42:37.839Z,13.90
2017-08-07T04:45:06.740Z,13.90
2017-08-07T04:47:35.060Z,13.90
2017-08-07T04:50:03.395Z,14.00
2017-08-07T04:52:32.225Z,14.00
2017-08-07T04:55:00.563Z,14.00
2017-08-07T04:57:28.868Z,14.10
2017-08-07T04:59:57.530Z,14.30
2017-08-07T05:02:25.884Z,14.30
2017-08-07T05:04:54.369Z,14.30
2017-08-07T05:07:22.699Z,14.30
2017-08-07T05:09:51.597Z,14.40
2017-08-07T05:12:19.936Z,14.50
2017-08-07T05:14:48.232Z,14.60
2017-08-07T05:17:16.962Z,14.80
2017-08-07T05:19:45.293Z,14.80
2017-08-07T05:22:13.985Z,14.80
2017-08-07T05:24:42.241Z,14.80
2017-08-07T05:27:11.503Z,14.90
2017-08-07T05:29:40.881Z,15.00
2017-08-07T05:32:09.193Z,14.90
2017-08-07T05:34:38.177Z,14.80
2017-08-07T05:37:06.417Z,14.80
2017-08-07T05:39:34.763Z,14.90
2017-08-07T05:42:03.051Z,15.10
2017-08-07T05:44:32.143Z,15.20
2017-08-07T05:47:00.816Z,15.40
2017-08-07T05:49:29.063Z,15.60
2017-08-07T05:51:58.207Z,15.60
2017-08-07T05:54:27.680Z,15.60
2017-08-07T05:56:57.141Z,15.50
2017-08-07T05:59:25.417Z,15.50
2017-08-07T06:01:59.417Z,15.60
2017-08-07T06:04:29.217Z,15.60
2017-08-07T06:06:57.546Z,15.60
2017-08-07T06:09:25.804Z,15.80
2017-08-07T06:11:54.245Z,15.90
2017-08-07T06:14:23.144Z,16.30
2017-08-07T06:16:51.485Z,16.30
2017-08-07T06:19:19.900Z,16.50
2017-08-07T06:21:48.733Z,16.40
2017-08-07T06:24:17.284Z,16.40
2017-08-07T06:26:45.632Z,16.30
2017-08-07T06:29:14.352Z,16.20
2017-08-07T06:31:43.020Z,16.30
2017-08-07T06:34:11.372Z,16.30
2017-08-07T06:36:39.612Z,16.30
2017-08-07T06:39:08.265Z,16.30
2017-08-07T06:41:36.967Z,16.60
2017-08-07T06:44:05.353Z,16.90
2017-08-07T06:46:33.872Z,17.00
2017-08-07T06:49:02.163Z,17.00
2017-08-07T06:51:31.503Z,17.20
2017-08-07T06:54:00.700Z,17.00
2017-08-07T06:56:29.364Z,16.90
2017-08-07T06:58:57.892Z,17.10
2017-08-07T07:01:26.982Z,17.00
2017-08-07T07:03:55.417Z,17.10
2017-08-07T07:06:30.951Z,17.60
2017-08-07T07:08:59.753Z,17.60
2017-08-07T07:11:28.397Z,17.80
2017-08-07T07:13:56.655Z,17.90
2017-08-07T07:16:25.000Z,18.30
2017-08-07T07:18:53.479Z,18.20
2017-08-07T07:21:21.784Z,17.60
2017-08-07T07:23:50.453Z,17.50
2017-08-07T07:26:18.772Z,17.60
2017-08-07T17:54:41.042Z,21.80
2017-08-07T17:57:10.142Z,21.80
2017-08-07T17:59:38.388Z,21.80
2017-08-07T18:02:06.657Z,21.80
2017-08-07T18:04:35.085Z,21.90
2017-08-07T18:07:03.530Z,21.80
2017-08-07T18:09:31.765Z,21.70
2017-08-07T18:12:00.014Z,21.70
2017-08-07T18:14:28.273Z,21.70
2017-08-07T18:16:56.528Z,21.60
2017-08-07T18:19:24.841Z,21.50
2017-08-07T18:21:53.113Z,21.40
2017-08-07T18:24:21.357Z,21.40
2017-08-07T18:26:49.608Z,21.40
2017-08-07T18:29:17.863Z,21.20
2017-08-07T18:31:46.132Z,21.10
2017-08-07T18:34:14.376Z,21.00
2017-08-07T18:36:42.688Z,20.90
2017-08-07T18:39:10.932Z,20.80
2017-08-07T18:41:39.186Z,20.80
2017-08-07T18:44:07.560Z,20.90
2017-08-07T18:46:35.824Z,20.90
2017-08-07T18:49:04.115Z,20.90
2017-08-07T18:51:32.356Z,20.80
2017-08-07T18:54:00.995Z,20.70
2017-08-07T18:56:29.254Z,20.70
2017-08-07T18:58:58.046Z,20.70
2017-08-07T19:01:26.337Z,20.60
2017-08-07T19:03:54.576Z,20.60
2017-08-07T19:06:22.866Z,20.50
2017-08-07T19:08:51.130Z,20.30
2017-08-07T19:11:19.385Z,20.30
2017-08-07T19:13:47.656Z,20.20
2017-08-07T19:16:15.906Z,20.10
2017-08-07T19:18:44.177Z,20.00
2017-08-07T19:21:12.432Z,19.90
2017-08-07T19:23:40.681Z,19.90
2017-08-07T19:26:09.061Z,19.90
2017-08-07T19:28:37.304Z,19.90
2017-08-07T19:31:05.552Z,19.80
2017-08-07T19:33:33.840Z,19.70
2017-08-07T19:36:02.080Z,19.80
2017-08-07T19:38:30.364Z,19.80
2017-08-07T19:40:58.621Z,19.80
2017-08-07T19:43:26.881Z,19.80
2017-08-07T19:45:55.137Z,19.80
2017-08-07T19:48:23.393Z,19.80
2017-08-07T19:50:51.673Z,19.70
2017-08-07T19:53:19.912Z,19.70
2017-08-07T19:55:48.157Z,19.60
2017-08-07T19:58:16.440Z,19.50
2017-08-07T20:00:44.680Z,19.60
2017-08-07T20:03:13.351Z,19.60
2017-08-07T20:05:41.613Z,19.50
2017-08-07T20:08:09.856Z,19.40
2017-08-07T20:10:38.119Z,19.50
2017-08-07T20:13:06.336Z,19.50
2017-08-07T20:15:35.177Z,19.40
2017-08-07T20:18:03.418Z,19.40
2017-08-07T20:20:32.080Z,19.30
2017-08-07T20:23:00.334Z,19.30
2017-08-07T20:25:28.690Z,19.30
2017-08-07T20:27:57.215Z,19.20
2017-08-07T20:30:25.485Z,19.20
2017-08-07T20:32:53.839Z,19.10
2017-08-07T20:35:22.996Z,19.10
2017-08-07T20:37:51.552Z,19.10
2017-08-07T20:40:19.826Z,19.10
2017-08-07T20:42:48.080Z,19.00
2017-08-07T20:45:17.054Z,19.00
2017-08-07T20:47:50.692Z,18.90
2017-08-07T20:50:23.598Z,18.90
2017-08-07T20:52:58.092Z,18.90
2017-08-07T20:55:26.756Z,18.80
2017-08-07T20:57:55.952Z,18.80
2017-08-07T21:00:24.608Z,18.70
2017-08-07T21:02:52.860Z,18.70
2017-08-07T21:05:21.128Z,18.70
2017-08-07T21:07:49.740Z,18.70
2017-08-07T21:10:17.988Z,18.60
2017-08-07T21:12:52.189Z,18.60
2017-08-07T21:15:20.761Z,18.60
2017-08-07T21:17:49.028Z,18.50
2017-08-07T21:20:17.441Z,18.50
2017-08-07T21:22:46.452Z,18.40
2017-08-07T21:25:14.822Z,18.40
2017-08-07T21:27:50.573Z,18.40
2017-08-07T21:30:19.201Z,18.40
2017-08-07T21:32:47.823Z,18.30
2017-08-07T21:35:16.899Z,18.30
2017-08-07T21:37:45.564Z,18.20
2017-08-07T21:40:14.124Z,18.20
2017-08-07T21:42:48.533Z,18.20
2017-08-07T21:45:17.048Z,18.10
2017-08-07T21:47:45.362Z,18.00
2017-08-07T21:50:13.764Z,18.00
2017-08-07T21:52:42.388Z,17.90
2017-08-07T21:55:11.560Z,17.90
2017-08-07T21:57:40.288Z,17.80
2017-08-07T22:00:08.673Z,17.80
2017-08-07T22:02:37.484Z,17.80
2017-08-07T22:05:05.745Z,17.80
2017-08-07T22:07:34.543Z,17.80
2017-08-07T22:10:04.312Z,17.80
2017-08-07T22:12:33.668Z,17.80
2017-08-07T22:15:01.996Z,17.80
2017-08-07T22:17:31.212Z,17.80
2017-08-07T22:19:59.509Z,17.70
2017-08-07T22:22:27.760Z,17.70
2017-08-07T22:24:56.175Z,17.70
2017-08-07T22:27:24.431Z,17.60
2017-08-07T22:29:53.159Z,17.60
2017-08-07T22:32:23.089Z,17.50
2017-08-07T22:34:51.654Z,17.60
2017-08-07T22:37:20.004Z,17.60
2017-08-07T22:39:48.363Z,17.50
2017-08-07T22:42:17.206Z,17.50
2017-08-07T22:44:45.719Z,17.50
2017-08-07T22:47:14.459Z,17.40
2017-08-07T22:49:42.892Z,17.40
2017-08-07T22:52:11.577Z,17.40
2017-08-07T22:54:39.876Z,17.40
2017-08-07T22:57:08.129Z,17.40
2017-08-07T22:59:37.080Z,17.30
2017-08-07T23:02:05.877Z,17.30
2017-08-07T23:04:34.852Z,17.30
2017-08-07T23:07:03.112Z,17.30
2017-08-07T23:09:31.693Z,17.30
2017-08-07T23:12:00.605Z,17.30
2017-08-07T23:14:29.765Z,17.30
2017-08-07T23:16:58.017Z,17.30
2017-08-07T23:19:27.069Z,17.30
2017-08-07T23:21:55.579Z,17.30
2017-08-07T23:24:23.916Z,17.30
2017-08-07T23:26:53.431Z,17.30
2017-08-07T23:29:22.351Z,17.20
2017-08-07T23:31:50.764Z,17.20
2017-08-07T23:34:19.220Z,17.20
2017-08-07T23:36:53.429Z,17.20
2017-08-07T23:39:27.569Z,17.20
2017-08-07T23:42:01.770Z,17.10
2017-08-07T23:44:35.969Z,17.10
2017-08-07T23:47:10.205Z,17.00
2017-08-07T23:49:44.546Z,17.00
2017-08-07T23:52:18.778Z,17.00
2017-08-07T23:54:53.150Z,16.90
2017-08-07T23:57:27.300Z,16.90
